Time;durP1;ratioP1;P1;durP2;ratioP2;P2;SDS_P1;SDS_P2;PMS_P1;PMS_P2;Temp;Humidity;BMP_temperature;BMP_pressure;BME280_temperature;BME280_humidity;BME280_pressure;Samples;Min_cycle;Max_cycle;Signal;HPM_P1;HPM_P2
2023/10/25 00:00:29;;;;;;;11.80;1.67;;;;;;;;;;5929621;29;20067;-83
2023/10/25 00:03:31;;;;;;;23.60;2.00;;;;;;;;;;5946806;29;20100;-82
2023/10/25 00:06:33;;;;;;;8.15;1.40;;;;;;;;;;5943006;29;20082;-83
2023/10/25 00:09:35;;;;;;;4.38;1.20;;;;;;;;;;5954487;29;20093;-82
2023/10/25 00:12:37;;;;;;;7.18;1.83;;;;;;;;;;5948698;29;20059;-83
2023/10/25 00:15:40;;;;;;;14.80;2.00;;;;;;;;;;5953440;29;20074;-84
2023/10/25 00:18:42;;;;;;;11.35;2.38;;;;;;;;;;5954920;29;20038;-82
2023/10/25 00:21:44;;;;;;;9.18;1.67;;;;;;;;;;5951177;29;20050;-82
2023/10/25 00:24:46;;;;;;;7.20;1.80;;;;;;;;;;5955371;29;20050;-82
2023/10/25 00:27:47;;;;;;;7.93;1.98;;;;;;;;;;5963240;29;20083;-82
2023/10/25 00:30:49;;;;;;;5.40;2.10;;;;;;;;;;5952577;29;20050;-82
2023/10/25 00:33:51;;;;;;;13.13;3.10;;;;;;;;;;5947354;29;20053;-85
2023/10/25 00:36:53;;;;;;;7.75;2.55;;;;;;;;;;5953876;29;20477;-85
2023/10/25 00:39:56;;;;;;;6.05;2.67;;;;;;;;;;5972300;29;20431;-84
2023/10/25 00:43:20;;;;;;;6.85;2.45;;;;;;;;;;5959995;29;20074;-83
2023/10/25 00:46:24;;;;;;;;;;;;;;;;;;5942955;29;20140;-83
2023/10/25 00:49:27;;;;;;;20.45;2.90;;;;;;;;;;5953909;29;19948;-83
2023/10/25 00:52:29;;;;;;;10.40;2.95;;;;;;;;;;5956427;29;20120;-82
2023/10/25 00:55:31;;;;;;;5.47;2.70;;;;;;;;;;5958035;29;20572;-84
2023/10/25 00:58:33;;;;;;;5.13;2.55;;;;;;;;;;5953181;29;20142;-83
2023/10/25 01:01:35;;;;;;;6.15;2.67;;;;;;;;;;5940057;29;20108;-83
2023/10/25 01:04:37;;;;;;;5.65;2.85;;;;;;;;;;5938902;29;20491;-83
2023/10/25 01:07:39;;;;;;;8.10;2.30;;;;;;;;;;5937517;29;20051;-83
2023/10/25 01:10:40;;;;;;;5.07;2.50;;;;;;;;;;5945803;29;20066;-85
2023/10/25 01:13:42;;;;;;;5.35;2.15;;;;;;;;;;5950488;29;20046;-84
2023/10/25 01:16:44;;;;;;;4.22;2.45;;;;;;;;;;5949298;29;20070;-84
2023/10/25 01:19:46;;;;;;;6.07;2.75;;;;;;;;;;5951788;29;20059;-82
2023/10/25 01:22:48;;;;;;;3.40;1.92;;;;;;;;;;5951057;29;20188;-81
2023/10/25 01:25:49;;;;;;;7.18;2.80;;;;;;;;;;5966741;29;20059;-81
2023/10/25 01:28:51;;;;;;;5.97;2.70;;;;;;;;;;5951115;29;20054;-82
2023/10/25 01:31:53;;;;;;;4.25;2.33;;;;;;;;;;5949764;29;20118;-83
2023/10/25 01:34:54;;;;;;;5.25;2.63;;;;;;;;;;5952549;29;20575;-82
2023/10/25 01:37:56;;;;;;;4.95;2.55;;;;;;;;;;5934078;29;20066;-83
2023/10/25 01:40:58;;;;;;;6.50;2.88;;;;;;;;;;5948785;29;20050;-82
2023/10/25 01:44:02;;;;;;;7.38;3.10;;;;;;;;;;5958832;29;20047;-84
2023/10/25 01:47:05;;;;;;;7.80;3.03;;;;;;;;;;5966179;29;20047;-82
2023/10/25 01:50:10;;;;;;;7.30;2.90;;;;;;;;;;5961631;29;20050;-84
2023/10/25 01:53:12;;;;;;;5.53;2.75;;;;;;;;;;5953293;29;20054;-84
2023/10/25 01:56:13;;;;;;;7.22;2.55;;;;;;;;;;5953313;29;20046;-85
2023/10/25 01:59:15;;;;;;;9.13;3.15;;;;;;;;;;5953362;29;20062;-85
2023/10/25 02:02:17;;;;;;;5.60;2.85;;;;;;;;;;5954505;29;20074;-83
2023/10/25 02:05:19;;;;;;;9.25;3.05;;;;;;;;;;5954952;29;20057;-85
2023/10/25 02:08:21;;;;;;;6.45;3.00;;;;;;;;;;5953375;29;20058;-84
2023/10/25 02:11:24;;;;;;;6.00;3.03;;;;;;;;;;5941145;29;20051;-84
2023/10/25 02:14:25;;;;;;;6.25;2.80;;;;;;;;;;5957887;29;20062;-82
2023/10/25 02:17:27;;;;;;;10.00;3.22;;;;;;;;;;5954951;29;20058;-83
2023/10/25 02:20:29;;;;;;;5.80;2.67;;;;;;;;;;5955274;29;20047;-83
2023/10/25 02:23:31;;;;;;;7.72;2.80;;;;;;;;;;5954017;29;20055;-81
2023/10/25 02:26:32;;;;;;;4.38;2.80;;;;;;;;;;5937652;29;20055;-84
2023/10/25 02:29:34;;;;;;;6.05;2.78;;;;;;;;;;5947816;29;20057;-82
2023/10/25 02:32:36;;;;;;;7.03;3.30;;;;;;;;;;5949662;29;20476;-81
2023/10/25 02:35:38;;;;;;;6.80;3.53;;;;;;;;;;5939862;29;20179;-85
2023/10/25 02:38:40;;;;;;;11.65;3.55;;;;;;;;;;5949169;29;20051;-84
2023/10/25 02:41:43;;;;;;;9.77;3.72;;;;;;;;;;5953014;29;20055;-83
2023/10/25 02:44:44;;;;;;;10.02;3.92;;;;;;;;;;5952677;29;20097;-83
2023/10/25 02:47:46;;;;;;;14.85;3.58;;;;;;;;;;5949313;29;20055;-83
2023/10/25 02:50:48;;;;;;;11.57;3.93;;;;;;;;;;5948778;29;20047;-83
2023/10/25 02:53:53;;;;;;;12.40;4.07;;;;;;;;;;5967736;29;20466;-83
2023/10/25 02:56:56;;;;;;;13.50;4.30;;;;;;;;;;5951977;29;20050;-84
2023/10/25 02:59:57;;;;;;;13.90;3.90;;;;;;;;;;5956162;29;20058;-83
2023/10/25 03:02:59;;;;;;;12.30;5.30;;;;;;;;;;5964028;29;21201;-85
2023/10/25 03:06:01;;;;;;;13.60;4.32;;;;;;;;;;5952311;29;20110;-84
2023/10/25 03:09:03;;;;;;;12.25;4.35;;;;;;;;;;5953025;29;20050;-83
2023/10/25 03:12:05;;;;;;;22.65;4.80;;;;;;;;;;5969474;29;20054;-81
2023/10/25 03:15:07;;;;;;;12.98;4.35;;;;;;;;;;5950613;29;20367;-84
2023/10/25 03:18:09;;;;;;;18.00;4.80;;;;;;;;;;5968221;29;20059;-84
2023/10/25 03:21:11;;;;;;;13.50;4.97;;;;;;;;;;5943558;29;20066;-83
2023/10/25 03:24:13;;;;;;;11.35;4.35;;;;;;;;;;5957938;29;20510;-85
2023/10/25 03:27:14;;;;;;;14.93;4.32;;;;;;;;;;5966933;29;20053;-86
2023/10/25 03:30:16;;;;;;;28.67;4.40;;;;;;;;;;5960393;29;20039;-85
2023/10/25 03:33:19;;;;;;;11.38;4.57;;;;;;;;;;5959029;29;20047;-85
2023/10/25 03:36:21;;;;;;;16.27;4.07;;;;;;;;;;5946260;29;21231;-85
2023/10/25 03:39:22;;;;;;;42.70;4.90;;;;;;;;;;5964770;29;20520;-85
2023/10/25 03:42:24;;;;;;;32.33;4.18;;;;;;;;;;5967240;29;20046;-85
2023/10/25 03:45:26;;;;;;;12.60;4.20;;;;;;;;;;5961161;29;20080;-85
2023/10/25 03:48:27;;;;;;;21.15;4.85;;;;;;;;;;5947770;29;20116;-85
2023/10/25 03:51:30;;;;;;;18.08;4.00;;;;;;;;;;5963984;29;20050;-85
2023/10/25 03:54:36;;;;;;;15.50;4.00;;;;;;;;;;5961794;29;20833;-85
2023/10/25 03:57:37;;;;;;;13.93;3.15;;;;;;;;;;5960528;29;20456;-84
2023/10/25 04:00:39;;;;;;;11.20;3.15;;;;;;;;;;5957835;29;20448;-85
2023/10/25 04:03:41;;;;;;;11.98;4.10;;;;;;;;;;5966757;29;20050;-85
2023/10/25 04:06:43;;;;;;;10.05;3.60;;;;;;;;;;5960332;29;20134;-84
2023/10/25 04:09:45;;;;;;;15.93;4.45;;;;;;;;;;5961666;29;20529;-85
2023/10/25 04:12:47;;;;;;;9.57;3.63;;;;;;;;;;5960095;29;20053;-85
2023/10/25 04:15:57;;;;;;;18.08;4.75;;;;;;;;;;5961260;29;20043;-85
2023/10/25 04:18:59;;;;;;;21.05;4.50;;;;;;;;;;5961602;29;20050;-85
2023/10/25 04:22:00;;;;;;;10.77;3.65;;;;;;;;;;5971560;29;20047;-85
2023/10/25 04:25:03;;;;;;;18.73;3.60;;;;;;;;;;5962647;29;20055;-84
2023/10/25 04:28:05;;;;;;;21.50;3.22;;;;;;;;;;5959871;29;20067;-85
2023/10/25 04:31:08;;;;;;;14.18;3.55;;;;;;;;;;5957518;29;20462;-85
2023/10/25 04:34:10;;;;;;;26.20;4.03;;;;;;;;;;5963026;29;20167;-85
2023/10/25 04:37:13;;;;;;;11.00;3.53;;;;;;;;;;5960560;29;20043;-86
2023/10/25 04:40:15;;;;;;;;;;;;;;;;;;5962398;29;20062;-85
2023/10/25 04:43:17;;;;;;;14.82;3.80;;;;;;;;;;5959342;29;19925;-86
2023/10/25 04:46:18;;;;;;;13.57;3.60;;;;;;;;;;5945667;29;20057;-86
2023/10/25 04:49:20;;;;;;;10.93;3.22;;;;;;;;;;5958299;29;20118;-86
2023/10/25 04:52:22;;;;;;;14.00;3.30;;;;;;;;;;5959480;29;20058;-85
2023/10/25 04:55:26;;;;;;;7.90;3.22;;;;;;;;;;5945145;29;20055;-85
2023/10/25 04:58:27;;;;;;;15.98;4.75;;;;;;;;;;5958864;29;20065;-85
2023/10/25 05:01:29;;;;;;;10.90;4.30;;;;;;;;;;5961066;29;20658;-85
2023/10/25 05:04:31;;;;;;;10.98;3.55;;;;;;;;;;5950309;29;20062;-85
2023/10/25 05:07:37;;;;;;;13.05;3.33;;;;;;;;;;5941458;29;20134;-85
2023/10/25 05:10:39;;;;;;;12.43;3.63;;;;;;;;;;5954852;29;20062;-84
2023/10/25 05:13:41;;;;;;;11.60;3.63;;;;;;;;;;5949682;29;20130;-84
2023/10/25 05:16:43;;;;;;;12.80;3.40;;;;;;;;;;5961084;29;20051;-85
2023/10/25 05:19:45;;;;;;;9.07;3.70;;;;;;;;;;5968464;29;20051;-86
2023/10/25 05:22:50;;;;;;;8.77;3.47;;;;;;;;;;5963971;29;20039;-85
2023/10/25 05:25:52;;;;;;;13.63;4.20;;;;;;;;;;5946880;29;20061;-85
2023/10/25 05:28:54;;;;;;;11.73;4.00;;;;;;;;;;5962739;29;20119;-85
2023/10/25 05:32:03;;;;;;;11.00;3.65;;;;;;;;;;5946454;29;20131;-86
2023/10/25 05:35:05;;;;;;;12.20;4.65;;;;;;;;;;5961916;29;20123;-85
2023/10/25 05:38:07;;;;;;;12.98;4.18;;;;;;;;;;5962729;29;20123;-86
2023/10/25 05:41:15;;;;;;;14.32;4.18;;;;;;;;;;5946770;29;20453;-85
2023/10/25 05:44:17;;;;;;;15.05;3.88;;;;;;;;;;5943671;29;20062;-84
2023/10/25 05:47:19;;;;;;;12.85;4.55;;;;;;;;;;5964145;29;20070;-85
2023/10/25 05:50:21;;;;;;;16.00;4.70;;;;;;;;;;5960146;29;20047;-85
2023/10/25 05:53:23;;;;;;;10.43;4.22;;;;;;;;;;5960451;29;20113;-84
2023/10/25 05:56:28;;;;;;;32.78;13.30;;;;;;;;;;5961178;29;20529;-85
2023/10/25 05:59:30;;;;;;;20.15;7.50;;;;;;;;;;5963264;29;20203;-85
2023/10/25 06:02:33;;;;;;;22.05;7.97;;;;;;;;;;5955093;29;20075;-86
2023/10/25 06:05:35;;;;;;;14.15;5.55;;;;;;;;;;5961140;29;20055;-85
2023/10/25 06:08:37;;;;;;;17.37;5.50;;;;;;;;;;5941720;29;20059;-84
2023/10/25 06:11:40;;;;;;;14.98;6.57;;;;;;;;;;5948356;29;20784;-83
2023/10/25 06:14:42;;;;;;;13.68;5.32;;;;;;;;;;5950403;29;20054;-84
2023/10/25 06:17:44;;;;;;;15.90;7.70;;;;;;;;;;5948954;29;20059;-84
2023/10/25 06:20:46;;;;;;;10.48;4.82;;;;;;;;;;5954759;29;20078;-84
2023/10/25 06:23:48;;;;;;;11.70;4.10;;;;;;;;;;5962085;29;20050;-85
2023/10/25 06:26:49;;;;;;;12.32;6.15;;;;;;;;;;5952141;29;20059;-84
2023/10/25 06:29:51;;;;;;;9.57;4.10;;;;;;;;;;5935470;29;20528;-84
2023/10/25 06:32:53;;;;;;;10.27;4.80;;;;;;;;;;5941056;29;20188;-83
2023/10/25 06:35:59;;;;;;;10.95;5.28;;;;;;;;;;5933641;29;20047;-83
2023/10/25 06:39:04;;;;;;;10.30;4.03;;;;;;;;;;5951952;29;20055;-83
2023/10/25 06:42:07;;;;;;;11.20;4.93;;;;;;;;;;5956961;29;20042;-84
2023/10/25 06:45:16;;;;;;;11.48;4.28;;;;;;;;;;5938840;29;20046;-82
2023/10/25 06:48:18;;;;;;;8.88;3.80;;;;;;;;;;5952172;29;20055;-85
2023/10/25 06:51:20;;;;;;;9.68;4.18;;;;;;;;;;5951133;29;20054;-85
2023/10/25 06:54:22;;;;;;;9.60;3.67;;;;;;;;;;5953331;29;20051;-84
2023/10/25 06:57:24;;;;;;;10.45;6.20;;;;;;;;;;5949709;29;20147;-83
2023/10/25 07:00:26;;;;;;;9.95;4.93;;;;;;;;;;5960816;29;20051;-83
2023/10/25 07:03:35;;;;;;;11.40;4.97;;;;;;;;;;5949720;29;20192;-83
2023/10/25 07:06:39;;;;;;;14.10;5.40;;;;;;;;;;5953476;29;20211;-85
2023/10/25 07:09:41;;;;;;;11.00;5.15;;;;;;;;;;5952817;29;20194;-85
2023/10/25 07:12:43;;;;;;;13.05;6.40;;;;;;;;;;5939058;29;20094;-84
2023/10/25 07:15:46;;;;;;;12.82;4.85;;;;;;;;;;5941290;29;20047;-85
2023/10/25 07:18:47;;;;;;;10.77;4.70;;;;;;;;;;5954645;29;20058;-85
2023/10/25 07:21:49;;;;;;;9.68;4.85;;;;;;;;;;5951579;29;20188;-85
2023/10/25 07:24:51;;;;;;;10.43;4.70;;;;;;;;;;5949312;29;20537;-85
2023/10/25 07:27:53;;;;;;;11.50;5.97;;;;;;;;;;5941822;29;20104;-85
2023/10/25 07:30:55;;;;;;;12.45;5.10;;;;;;;;;;5946873;29;20055;-85
2023/10/25 07:33:56;;;;;;;10.40;4.13;;;;;;;;;;5952366;29;20044;-85
2023/10/25 07:36:58;;;;;;;10.05;4.18;;;;;;;;;;5950149;29;20106;-86
2023/10/25 07:40:02;;;;;;;11.00;4.00;;;;;;;;;;5962072;29;20112;-85
2023/10/25 07:43:04;;;;;;;11.50;4.03;;;;;;;;;;5935262;29;20061;-85
2023/10/25 07:46:06;;;;;;;13.02;5.57;;;;;;;;;;5968874;29;20055;-85
2023/10/25 07:49:08;;;;;;;11.52;5.38;;;;;;;;;;5953408;29;20051;-86
2023/10/25 07:52:09;;;;;;;12.90;5.03;;;;;;;;;;5960797;29;20051;-86
2023/10/25 07:55:11;;;;;;;11.38;5.15;;;;;;;;;;5949537;29;20141;-86
2023/10/25 07:58:33;;;;;;;14.35;5.82;;;;;;;;;;5942674;29;20091;-84
2023/10/25 08:01:37;;;;;;;11.73;5.18;;;;;;;;;;5960973;29;20157;-86
2023/10/25 08:04:39;;;;;;;15.00;6.47;;;;;;;;;;5951267;29;20047;-85
2023/10/25 08:07:42;;;;;;;13.82;6.40;;;;;;;;;;5952855;29;20047;-85
2023/10/25 08:10:43;;;;;;;16.08;6.63;;;;;;;;;;5948710;29;20111;-83
2023/10/25 08:13:46;;;;;;;16.88;6.20;;;;;;;;;;5952388;29;20062;-83
2023/10/25 08:16:48;;;;;;;17.17;7.20;;;;;;;;;;5950590;29;20061;-85
2023/10/25 08:19:50;;;;;;;18.07;7.50;;;;;;;;;;5946883;29;20058;-85
2023/10/25 08:22:52;;;;;;;14.32;6.85;;;;;;;;;;5945547;29;20062;-85
2023/10/25 08:25:58;;;;;;;16.85;8.18;;;;;;;;;;5953769;29;20051;-85
2023/10/25 08:28:59;;;;;;;13.73;7.00;;;;;;;;;;5954314;29;20689;-85
2023/10/25 08:32:01;;;;;;;16.95;7.22;;;;;;;;;;5947708;29;20054;-85
2023/10/25 08:35:03;;;;;;;15.77;7.75;;;;;;;;;;5952573;29;20063;-83
2023/10/25 08:38:05;;;;;;;16.20;7.78;;;;;;;;;;5953990;29;20149;-83
2023/10/25 08:41:07;;;;;;;20.58;8.80;;;;;;;;;;5940155;29;20054;-82
2023/10/25 08:44:09;;;;;;;18.10;7.83;;;;;;;;;;5948906;29;20496;-84
2023/10/25 08:47:11;;;;;;;15.60;7.65;;;;;;;;;;5938813;29;20085;-83
2023/10/25 08:50:19;;;;;;;14.68;7.07;;;;;;;;;;5951964;29;20518;-84
2023/10/25 08:53:25;;;;;;;16.85;7.75;;;;;;;;;;5952654;29;20047;-84
2023/10/25 08:56:27;;;;;;;17.65;7.22;;;;;;;;;;5938333;29;20062;-85
2023/10/25 08:59:28;;;;;;;13.93;6.53;;;;;;;;;;5957812;29;20053;-84
2023/10/25 09:02:35;;;;;;;14.48;6.40;;;;;;;;;;5954577;29;20063;-84
2023/10/25 09:05:42;;;;;;;16.23;6.93;;;;;;;;;;5954793;29;20165;-83
2023/10/25 09:08:56;;;;;;;14.75;7.45;;;;;;;;;;5957596;29;20101;-84
2023/10/25 09:11:58;;;;;;;11.98;5.70;;;;;;;;;;5958293;29;20051;-84
2023/10/25 09:15:00;;;;;;;13.43;6.13;;;;;;;;;;5941660;29;20046;-84
2023/10/25 09:18:01;;;;;;;12.35;5.97;;;;;;;;;;5958007;29;20043;-84
2023/10/25 09:21:04;;;;;;;13.32;6.07;;;;;;;;;;5954668;29;20053;-84
2023/10/25 09:24:14;;;;;;;10.82;5.32;;;;;;;;;;5955468;29;20079;-84
2023/10/25 09:27:18;;;;;;;10.57;5.03;;;;;;;;;;5945313;29;20057;-85
2023/10/25 09:30:20;;;;;;;11.00;5.53;;;;;;;;;;5946388;29;20059;-84
2023/10/25 09:33:30;;;;;;;13.25;6.18;;;;;;;;;;5959252;29;20046;-83
2023/10/25 09:36:31;;;;;;;12.23;6.03;;;;;;;;;;5952581;29;20075;-84
2023/10/25 09:39:35;;;;;;;12.90;5.50;;;;;;;;;;5950773;29;20054;-84
2023/10/25 09:42:38;;;;;;;12.75;6.10;;;;;;;;;;5969762;29;20062;-83
2023/10/25 09:45:41;;;;;;;11.82;5.82;;;;;;;;;;5952085;29;20055;-83
2023/10/25 09:48:54;;;;;;;11.15;5.75;;;;;;;;;;5955829;29;20425;-84
2023/10/25 09:52:05;;;;;;;12.48;6.10;;;;;;;;;;5950137;29;20106;-83
2023/10/25 09:55:21;;;;;;;10.68;6.13;;;;;;;;;;5953405;29;20077;-85
2023/10/25 09:58:24;;;;;;;11.38;5.63;;;;;;;;;;5951183;29;20518;-84
2023/10/25 10:01:26;;;;;;;9.38;5.40;;;;;;;;;;5938986;29;20089;-85
2023/10/25 10:04:41;;;;;;;11.77;5.95;;;;;;;;;;5954929;29;20633;-84
2023/10/25 10:08:10;;;;;;;10.02;6.18;;;;;;;;;;5951385;29;20180;-85
2023/10/25 10:11:16;;;;;;;11.57;6.07;;;;;;;;;;5955605;29;20054;-85
2023/10/25 10:14:38;;;;;;;12.13;6.78;;;;;;;;;;5957999;29;20080;-84
2023/10/25 10:17:44;;;;;;;12.43;6.88;;;;;;;;;;5948440;29;20563;-83
2023/10/25 10:20:58;;;;;;;10.57;6.57;;;;;;;;;;5950248;29;20078;-83
2023/10/25 10:24:00;;;;;;;12.52;6.88;;;;;;;;;;5966481;29;20062;-84
2023/10/25 10:27:02;;;;;;;11.80;6.88;;;;;;;;;;5953353;29;20124;-84
2023/10/25 10:30:04;;;;;;;9.93;6.28;;;;;;;;;;5949063;29;20054;-84
2023/10/25 10:33:12;;;;;;;11.52;6.97;;;;;;;;;;5954738;29;20184;-84
2023/10/25 10:36:25;;;;;;;11.43;7.22;;;;;;;;;;5949516;29;20960;-83
2023/10/25 10:39:27;;;;;;;11.57;7.53;;;;;;;;;;5951327;29;20154;-84
2023/10/25 10:42:28;;;;;;;10.40;7.05;;;;;;;;;;5951791;29;20097;-85
2023/10/25 10:45:31;;;;;;;12.85;7.68;;;;;;;;;;5951730;29;20512;-85
2023/10/25 10:48:37;;;;;;;12.38;7.07;;;;;;;;;;5951829;29;20127;-84
2023/10/25 10:51:39;;;;;;;13.93;7.75;;;;;;;;;;5949315;29;20065;-84
2023/10/25 10:54:41;;;;;;;12.80;7.07;;;;;;;;;;5955360;29;20089;-85
2023/10/25 10:57:44;;;;;;;13.18;6.88;;;;;;;;;;5940228;29;20093;-86
2023/10/25 11:01:05;;;;;;;13.20;7.70;;;;;;;;;;5944970;29;20527;-84
2023/10/25 11:04:07;;;;;;;10.23;6.43;;;;;;;;;;5937350;29;20055;-84
2023/10/25 11:07:09;;;;;;;9.90;6.22;;;;;;;;;;5950679;29;20144;-84
2023/10/25 11:10:11;;;;;;;9.10;5.90;;;;;;;;;;5952659;29;20070;-84
2023/10/25 11:13:13;;;;;;;7.82;5.68;;;;;;;;;;5949247;29;20054;-83
2023/10/25 11:16:15;;;;;;;8.82;5.07;;;;;;;;;;5962127;29;20058;-82
2023/10/25 11:19:17;;;;;;;8.63;4.95;;;;;;;;;;5948490;29;20059;-83
2023/10/25 11:22:19;;;;;;;10.18;5.35;;;;;;;;;;5964777;29;20571;-84
2023/10/25 11:25:21;;;;;;;7.20;5.00;;;;;;;;;;5942923;29;20057;-85
2023/10/25 11:28:23;;;;;;;6.97;4.68;;;;;;;;;;5957572;29;20055;-85
2023/10/25 11:31:31;;;;;;;7.63;4.78;;;;;;;;;;5950973;29;20175;-84
2023/10/25 11:34:33;;;;;;;6.07;4.10;;;;;;;;;;5937541;29;20058;-83
2023/10/25 11:37:45;;;;;;;8.07;5.13;;;;;;;;;;5937777;29;20055;-82
2023/10/25 11:40:47;;;;;;;8.00;4.15;;;;;;;;;;5954843;29;20077;-82
2023/10/25 11:43:49;;;;;;;7.75;4.95;;;;;;;;;;5955106;29;20453;-84
2023/10/25 11:46:58;;;;;;;6.43;4.38;;;;;;;;;;5950120;29;20526;-83
2023/10/25 11:50:01;;;;;;;7.47;4.38;;;;;;;;;;5955395;29;20069;-84
2023/10/25 11:53:03;;;;;;;5.43;3.80;;;;;;;;;;5957259;29;20051;-83
2023/10/25 11:56:05;;;;;;;7.55;4.28;;;;;;;;;;5936942;29;20047;-83
2023/10/25 11:59:06;;;;;;;6.30;4.43;;;;;;;;;;5955443;29;20081;-82
2023/10/25 12:02:08;;;;;;;5.68;4.45;;;;;;;;;;5953703;29;20112;-83
2023/10/25 12:05:10;;;;;;;7.07;4.28;;;;;;;;;;5956062;29;20531;-82
2023/10/25 12:08:12;;;;;;;5.13;3.95;;;;;;;;;;5953381;29;20421;-82
2023/10/25 12:11:13;;;;;;;7.15;4.68;;;;;;;;;;5952880;29;20050;-83
2023/10/25 12:14:15;;;;;;;6.03;4.18;;;;;;;;;;5952915;29;20077;-82
2023/10/25 12:17:32;;;;;;;9.43;5.15;;;;;;;;;;5958161;29;20058;-84
2023/10/25 12:20:34;;;;;;;8.02;4.15;;;;;;;;;;5943652;29;20051;-84
2023/10/25 12:23:36;;;;;;;7.03;4.32;;;;;;;;;;5943594;29;20580;-84
2023/10/25 12:26:38;;;;;;;13.80;7.00;;;;;;;;;;5976250;29;20057;-85
2023/10/25 12:29:40;;;;;;;6.97;4.00;;;;;;;;;;5961978;29;20063;-84
2023/10/25 12:32:41;;;;;;;9.25;4.10;;;;;;;;;;5962641;29;20411;-84
2023/10/25 12:35:43;;;;;;;7.22;3.80;;;;;;;;;;5964055;29;20068;-82
2023/10/25 12:38:45;;;;;;;7.22;3.58;;;;;;;;;;5950648;29;20058;-83
2023/10/25 12:41:47;;;;;;;5.72;3.50;;;;;;;;;;5965909;29;20046;-82
2023/10/25 12:44:49;;;;;;;3.42;2.40;;;;;;;;;;5949658;29;20047;-84
2023/10/25 12:47:51;;;;;;;3.92;2.78;;;;;;;;;;5963929;29;20067;-83
2023/10/25 12:50:53;;;;;;;5.28;3.38;;;;;;;;;;5968300;29;20134;-84
2023/10/25 12:53:54;;;;;;;4.85;3.30;;;;;;;;;;5947978;29;20370;-84
2023/10/25 12:56:56;;;;;;;4.43;2.92;;;;;;;;;;5968081;29;20043;-84
2023/10/25 12:59:58;;;;;;;4.07;3.05;;;;;;;;;;5969139;29;20485;-85
2023/10/25 13:03:00;;;;;;;4.35;2.75;;;;;;;;;;5947671;29;20067;-83
2023/10/25 13:06:03;;;;;;;5.13;3.20;;;;;;;;;;5970345;29;20054;-84
2023/10/25 13:09:05;;;;;;;6.38;4.15;;;;;;;;;;5963517;29;20054;-83
2023/10/25 13:12:09;;;;;;;4.63;3.50;;;;;;;;;;5967522;29;20049;-84
2023/10/25 13:15:11;;;;;;;3.78;2.45;;;;;;;;;;5966723;29;20051;-83
2023/10/25 13:18:14;;;;;;;4.13;2.30;;;;;;;;;;5964559;29;20526;-84
2023/10/25 13:21:16;;;;;;;;;;;;;;;;;;5947809;29;20134;-83
2023/10/25 13:24:18;;;;;;;3.40;2.30;;;;;;;;;;5962908;29;19928;-83
2023/10/25 13:27:19;;;;;;;4.68;3.63;;;;;;;;;;5961248;29;20074;-84
2023/10/25 13:30:21;;;;;;;6.30;4.70;;;;;;;;;;5961354;29;20080;-83
2023/10/25 13:33:23;;;;;;;3.75;2.90;;;;;;;;;;5961123;29;20151;-84
2023/10/25 13:36:28;;;;;;;7.68;5.30;;;;;;;;;;5959545;29;20082;-84
2023/10/25 13:39:30;;;;;;;3.47;2.42;;;;;;;;;;5967347;29;20156;-84
2023/10/25 13:42:32;;;;;;;3.47;2.35;;;;;;;;;;5962613;29;20055;-85
2023/10/25 13:45:33;;;;;;;3.78;2.88;;;;;;;;;;5960377;29;20057;-83
2023/10/25 13:48:39;;;;;;;3.28;2.40;;;;;;;;;;5960158;29;20054;-83
2023/10/25 13:51:41;;;;;;;7.70;3.90;;;;;;;;;;5974287;29;20049;-84
2023/10/25 13:54:43;;;;;;;4.75;3.63;;;;;;;;;;5961566;29;20511;-84
2023/10/25 13:57:45;;;;;;;5.93;3.65;;;;;;;;;;5960583;29;20403;-84
2023/10/25 14:00:49;;;;;;;3.85;2.95;;;;;;;;;;5951530;29;20162;-81
2023/10/25 14:03:50;;;;;;;;;;;;;;;;;;5953732;29;20061;-82
2023/10/25 14:06:52;;;;;;;8.52;3.45;;;;;;;;;;5949094;29;20444;-83
2023/10/25 14:09:54;;;;;;;3.05;2.38;;;;;;;;;;5949430;29;20067;-83
2023/10/25 14:12:55;;;;;;;3.03;2.42;;;;;;;;;;5947843;29;20058;-84
2023/10/25 14:15:58;;;;;;;;;;;;;;;;;;5947571;29;20058;-82
2023/10/25 14:19:00;;;;;;;3.63;2.50;;;;;;;;;;5937242;29;20701;-83
2023/10/25 14:22:02;;;;;;;2.83;2.28;;;;;;;;;;5937694;29;20046;-83
2023/10/25 14:25:04;;;;;;;3.65;3.20;;;;;;;;;;5947190;29;20063;-82
2023/10/25 14:28:09;;;;;;;4.87;3.33;;;;;;;;;;5947192;29;20089;-83
2023/10/25 14:31:15;;;;;;;8.25;3.78;;;;;;;;;;5948847;29;20042;-81
2023/10/25 14:34:17;;;;;;;3.28;2.65;;;;;;;;;;5959463;29;20047;-84
2023/10/25 14:37:19;;;;;;;4.35;2.63;;;;;;;;;;5933009;29;20050;-83
2023/10/25 14:40:20;;;;;;;17.08;8.60;;;;;;;;;;5944389;29;20127;-81
2023/10/25 14:43:22;;;;;;;6.35;3.50;;;;;;;;;;5935657;29;20553;-83
2023/10/25 14:46:24;;;;;;;3.30;2.90;;;;;;;;;;5947325;29;20535;-80
2023/10/25 14:49:26;;;;;;;2.92;2.47;;;;;;;;;;5948369;29;20058;-81
2023/10/25 14:52:28;;;;;;;3.70;2.95;;;;;;;;;;5942352;29;20058;-83
2023/10/25 14:55:35;;;;;;;3.55;2.75;;;;;;;;;;5960532;29;20507;-82
2023/10/25 14:58:41;;;;;;;2.90;2.60;;;;;;;;;;5943668;29;20074;-80
2023/10/25 15:01:42;;;;;;;3.42;2.78;;;;;;;;;;5946448;29;20177;-83
2023/10/25 15:04:44;;;;;;;5.22;4.57;;;;;;;;;;5946231;29;20423;-81
2023/10/25 15:07:49;;;;;;;4.43;3.45;;;;;;;;;;5950936;29;20055;-82
2023/10/25 15:10:51;;;;;;;2.95;2.33;;;;;;;;;;5949900;29;20189;-82
2023/10/25 15:13:53;;;;;;;5.72;3.72;;;;;;;;;;5955238;29;20104;-83
2023/10/25 15:16:54;;;;;;;2.08;1.70;;;;;;;;;;5949912;29;20115;-82
2023/10/25 15:19:56;;;;;;;4.45;3.97;;;;;;;;;;5946292;29;20137;-83
2023/10/25 15:22:59;;;;;;;3.20;2.53;;;;;;;;;;5951224;29;20059;-82
2023/10/25 15:26:02;;;;;;;4.68;3.08;;;;;;;;;;5934855;29;20519;-83
2023/10/25 15:29:04;;;;;;;2.20;2.00;;;;;;;;;;5948419;29;20047;-83
2023/10/25 15:32:06;;;;;;;3.87;2.80;;;;;;;;;;5950917;29;20085;-83
2023/10/25 15:35:08;;;;;;;3.17;2.80;;;;;;;;;;5947732;29;20058;-81
2023/10/25 15:38:10;;;;;;;3.28;2.28;;;;;;;;;;5940346;29;20108;-80
2023/10/25 15:41:14;;;;;;;4.00;3.10;;;;;;;;;;5943816;29;20051;-84
2023/10/25 15:44:16;;;;;;;4.32;3.75;;;;;;;;;;5956471;29;20540;-82
2023/10/25 15:47:20;;;;;;;4.68;3.47;;;;;;;;;;5930769;29;20058;-83
2023/10/25 15:50:22;;;;;;;3.83;3.10;;;;;;;;;;5957958;29;20494;-80
2023/10/25 15:53:24;;;;;;;2.40;2.00;;;;;;;;;;5959744;29;20059;-81
2023/10/25 15:56:25;;;;;;;6.85;4.15;;;;;;;;;;5941585;29;20055;-79
2023/10/25 15:59:27;;;;;;;4.47;3.78;;;;;;;;;;5944924;29;20975;-81
2023/10/25 16:02:28;;;;;;;5.65;4.32;;;;;;;;;;5941848;29;20055;-81
2023/10/25 16:05:30;;;;;;;5.53;4.05;;;;;;;;;;5957821;29;20049;-81
2023/10/25 16:08:33;;;;;;;3.72;3.03;;;;;;;;;;5942681;29;20067;-83
2023/10/25 16:11:36;;;;;;;5.00;3.42;;;;;;;;;;5941827;29;20064;-82
2023/10/25 16:14:37;;;;;;;;;;;;;;;;;;5952344;29;20077;-84
2023/10/25 16:17:39;;;;;;;5.13;4.00;;;;;;;;;;5933382;29;19929;-83
2023/10/25 16:20:41;;;;;;;6.40;4.05;;;;;;;;;;5946345;29;20058;-83
2023/10/25 16:23:43;;;;;;;11.35;6.68;;;;;;;;;;5963527;29;20077;-82
2023/10/25 16:26:45;;;;;;;10.70;7.00;;;;;;;;;;5933747;29;20055;-82
2023/10/25 16:29:47;;;;;;;9.63;6.65;;;;;;;;;;5960504;29;20099;-83
2023/10/25 16:32:49;;;;;;;7.30;5.10;;;;;;;;;;5943958;29;20051;-82
2023/10/25 16:35:50;;;;;;;7.05;4.80;;;;;;;;;;5946976;29;20055;-83
2023/10/25 16:38:52;;;;;;;7.65;4.85;;;;;;;;;;5925315;29;20051;-81
2023/10/25 16:41:54;;;;;;;6.13;4.55;;;;;;;;;;5942652;29;20094;-82
2023/10/25 16:44:56;;;;;;;12.30;7.30;;;;;;;;;;5954661;29;20043;-82
2023/10/25 16:47:57;;;;;;;9.77;5.45;;;;;;;;;;5942774;29;20061;-82
2023/10/25 16:51:10;;;;;;;8.80;5.60;;;;;;;;;;5952033;29;20310;-82
2023/10/25 16:54:12;;;;;;;14.80;6.75;;;;;;;;;;5942700;29;20078;-84
2023/10/25 16:57:14;;;;;;;14.73;8.88;;;;;;;;;;5941561;29;20060;-81
2023/10/25 17:00:16;;;;;;;14.73;8.00;;;;;;;;;;5948414;29;20051;-85
2023/10/25 17:03:18;;;;;;;12.70;7.07;;;;;;;;;;5959929;29;20054;-84
2023/10/25 17:06:20;;;;;;;4.43;3.13;;;;;;;;;;5963879;29;20147;-83
2023/10/25 17:09:22;;;;;;;10.45;6.10;;;;;;;;;;5950117;29;20051;-86
2023/10/25 17:12:24;;;;;;;8.45;4.68;;;;;;;;;;5963171;29;20114;-83
2023/10/25 17:15:26;;;;;;;12.55;7.55;;;;;;;;;;5955783;29;20047;-84
2023/10/25 17:18:33;;;;;;;11.27;7.68;;;;;;;;;;5956029;29;20046;-84
2023/10/25 17:21:35;;;;;;;7.88;5.53;;;;;;;;;;5947464;29;20057;-85
2023/10/25 17:24:37;;;;;;;29.10;13.20;;;;;;;;;;5954984;29;20062;-84
2023/10/25 17:27:40;;;;;;;39.42;16.33;;;;;;;;;;5957340;29;20113;-85
2023/10/25 17:30:42;;;;;;;10.20;5.43;;;;;;;;;;5954061;29;20055;-84
2023/10/25 17:33:44;;;;;;;11.13;6.60;;;;;;;;;;5968166;29;20055;-84
2023/10/25 17:36:45;;;;;;;21.58;10.05;;;;;;;;;;5955774;29;20058;-84
2023/10/25 17:39:48;;;;;;;60.20;34.70;;;;;;;;;;5971741;29;20134;-83
2023/10/25 17:42:50;;;;;;;18.85;11.68;;;;;;;;;;5957255;29;20066;-85
2023/10/25 17:45:54;;;;;;;9.37;6.97;;;;;;;;;;5970739;29;20055;-85
2023/10/25 17:49:12;;;;;;;14.15;10.10;;;;;;;;;;5949488;29;20049;-84
2023/10/25 17:52:13;;;;;;;13.65;9.43;;;;;;;;;;5951000;29;20070;-84
2023/10/25 17:55:16;;;;;;;17.33;8.60;;;;;;;;;;5941158;29;20062;-84
2023/10/25 17:58:18;;;;;;;14.88;7.30;;;;;;;;;;5948958;29;20470;-84
2023/10/25 18:01:19;;;;;;;11.07;8.00;;;;;;;;;;5939841;29;20162;-85
2023/10/25 18:04:21;;;;;;;17.20;10.63;;;;;;;;;;5935358;29;20502;-84
2023/10/25 18:07:24;;;;;;;13.85;9.18;;;;;;;;;;5930589;29;20700;-84
2023/10/25 18:10:26;;;;;;;11.60;8.68;;;;;;;;;;5959365;29;20104;-83